createdAt,value
2023-01-21T00:01:23.511Z,49.53
2023-01-21T00:03:53.229Z,44.53
2023-01-21T00:06:21.658Z,57.00
2023-01-21T00:08:49.999Z,45.95
2023-01-21T00:11:18.379Z,53.08
2023-01-21T00:13:47.999Z,49.75
2023-01-21T00:16:16.441Z,46.05
2023-01-21T00:18:47.318Z,50.50
2023-01-21T00:21:17.192Z,60.85
2023-01-21T00:23:47.111Z,50.33
2023-01-21T00:26:15.657Z,71.35
2023-01-21T00:28:44.306Z,60.42
2023-01-21T00:31:14.590Z,53.75
2023-01-21T00:33:43.499Z,55.30
2023-01-21T00:36:18.376Z,56.00
2023-01-21T00:38:50.030Z,63.83
2023-01-21T00:41:18.749Z,58.50
2023-01-21T00:43:47.139Z,49.17
2023-01-21T00:46:15.983Z,58.67
2023-01-21T00:48:44.654Z,60.00
2023-01-21T00:51:13.991Z,57.85
2023-01-21T00:53:42.996Z,62.00
2023-01-21T00:56:14.709Z,57.80
2023-01-21T00:58:44.396Z,54.03
2023-01-21T01:01:15.479Z,47.85
2023-01-21T01:03:44.902Z,53.25
2023-01-21T01:06:16.488Z,64.07
2023-01-21T01:08:45.839Z,53.47
2023-01-21T01:11:16.589Z,52.42
2023-01-21T01:13:45.977Z,55.60
2023-01-21T01:16:16.462Z,54.28
2023-01-21T01:18:45.668Z,55.60
2023-01-21T01:21:16.098Z,57.97
2023-01-21T01:23:44.996Z,55.40
2023-01-21T01:26:17.712Z,62.25
2023-01-21T01:28:46.560Z,61.63
2023-01-21T01:31:18.228Z,70.18
2023-01-21T01:33:47.349Z,58.65
2023-01-21T01:36:18.047Z,69.57
2023-01-21T01:38:46.764Z,61.58
2023-01-21T01:41:21.658Z,54.13
2023-01-21T01:43:58.137Z,58.00
2023-01-21T01:46:28.909Z,60.00
2023-01-21T01:49:04.166Z,57.33
2023-01-21T01:51:43.675Z,56.97
2023-01-21T01:54:16.039Z,47.10
2023-01-21T01:56:50.616Z,56.25
2023-01-21T01:59:20.358Z,59.50
2023-01-21T02:01:48.918Z,58.05
2023-01-21T02:04:24.352Z,60.65
2023-01-21T02:06:54.869Z,55.58
2023-01-21T02:09:27.891Z,54.03
2023-01-21T02:11:58.234Z,56.60
2023-01-21T02:14:27.382Z,53.20
2023-01-21T02:17:12.356Z,57.35
2023-01-21T02:20:05.849Z,48.25
2023-01-21T02:22:40.284Z,51.22
2023-01-21T02:25:57.625Z,52.72
2023-01-21T02:29:02.443Z,48.15
2023-01-21T02:32:01.313Z,45.63
2023-01-21T02:34:39.750Z,53.25
2023-01-21T02:37:13.702Z,45.85
2023-01-21T02:40:07.520Z,42.83
2023-01-21T02:42:46.174Z,39.05
2023-01-21T02:45:28.187Z,61.20
2023-01-21T02:48:06.230Z,46.65
2023-01-21T02:50:39.688Z,59.05
2023-01-21T02:53:08.231Z,51.40
2023-01-21T02:55:39.056Z,48.17
2023-01-21T02:58:12.301Z,56.88
2023-01-21T03:00:54.626Z,52.15
2023-01-21T03:04:08.818Z,48.75
2023-01-21T03:06:55.975Z,48.25
2023-01-21T03:09:28.011Z,51.33
2023-01-21T03:12:12.431Z,45.58
2023-01-21T03:15:07.900Z,41.95
2023-01-21T03:17:42.906Z,44.63
2023-01-21T03:20:17.973Z,45.85
2023-01-21T03:22:50.281Z,49.08
2023-01-21T03:25:20.444Z,47.38
2023-01-21T03:27:50.900Z,50.92
2023-01-21T03:30:25.534Z,53.63
2023-01-21T03:32:59.358Z,51.88
2023-01-21T03:35:34.608Z,54.38
2023-01-21T03:38:10.435Z,43.25
2023-01-21T03:40:43.226Z,40.45
2023-01-21T03:43:12.254Z,55.78
2023-01-21T03:45:50.607Z,48.58
2023-01-21T03:48:26.039Z,46.40
2023-01-21T03:51:04.036Z,46.58
2023-01-21T03:53:33.849Z,57.55
2023-01-21T03:56:02.606Z,39.75
2023-01-21T03:58:31.533Z,47.28
2023-01-21T04:01:00.122Z,51.53
2023-01-21T04:03:28.804Z,45.53
2023-01-21T04:05:57.353Z,50.53
2023-01-21T04:08:26.236Z,48.00
2023-01-21T04:10:55.915Z,46.10
2023-01-21T04:13:24.531Z,44.80
2023-01-21T04:15:52.925Z,55.03
2023-01-21T04:18:21.452Z,42.90
2023-01-21T04:20:49.913Z,45.88
2023-01-21T04:23:18.329Z,45.08
2023-01-21T04:25:49.249Z,44.10
2023-01-21T04:28:19.521Z,47.47
2023-01-21T04:30:49.267Z,43.08
2023-01-21T04:33:19.227Z,48.60
2023-01-21T04:35:47.744Z,54.80
2023-01-21T04:38:16.044Z,48.30
2023-01-21T04:40:45.173Z,48.45
2023-01-21T04:43:13.491Z,45.85
2023-01-21T04:45:43.421Z,47.20
2023-01-21T04:48:11.834Z,56.70
2023-01-21T04:50:40.172Z,49.53
2023-01-21T04:53:09.065Z,53.55
2023-01-21T04:55:37.482Z,67.25
2023-01-21T04:58:06.068Z,53.00
2023-01-21T05:00:35.210Z,46.92
2023-01-21T05:03:05.131Z,45.90
2023-01-21T05:05:33.538Z,47.92
2023-01-21T05:08:01.936Z,44.28
2023-01-21T05:10:30.715Z,43.58
2023-01-21T05:13:00.125Z,39.67
2023-01-21T05:15:28.752Z,39.72
2023-01-21T05:17:57.290Z,46.17
2023-01-21T05:20:27.220Z,37.78
2023-01-21T05:22:55.621Z,41.83
2023-01-21T05:25:24.034Z,45.00
2023-01-21T05:27:53.997Z,40.72
2023-01-21T05:30:22.990Z,45.35
2023-01-21T05:32:52.891Z,49.90
2023-01-21T05:35:22.767Z,42.88
2023-01-21T05:37:53.150Z,51.13
2023-01-21T05:40:21.844Z,37.17
2023-01-21T05:42:50.544Z,37.95
2023-01-21T05:45:19.150Z,46.78
2023-01-21T05:47:47.798Z,48.45
2023-01-21T05:50:16.467Z,44.85
2023-01-21T05:52:45.092Z,50.97
2023-01-21T05:55:14.853Z,52.40
2023-01-21T05:57:43.245Z,44.15
2023-01-21T06:00:13.594Z,45.88
2023-01-21T06:02:42.010Z,49.15
2023-01-21T06:05:11.642Z,47.10
2023-01-21T06:07:40.041Z,52.40
2023-01-21T06:10:10.394Z,45.30
2023-01-21T06:12:40.220Z,38.38
2023-01-21T06:15:10.096Z,55.25
2023-01-21T06:17:41.109Z,43.10
2023-01-21T06:20:11.545Z,47.85
2023-01-21T06:22:40.137Z,54.45
2023-01-21T06:25:09.181Z,42.97
2023-01-21T06:27:39.731Z,44.40
2023-01-21T06:30:11.070Z,45.92
2023-01-21T06:32:39.629Z,46.63
2023-01-21T06:35:08.972Z,49.20
2023-01-21T06:37:37.385Z,45.85
2023-01-21T06:40:07.651Z,50.17
2023-01-21T06:42:36.182Z,41.38
2023-01-21T06:45:07.301Z,52.15
2023-01-21T06:47:35.752Z,47.45
2023-01-21T06:50:05.986Z,47.70
2023-01-21T06:52:34.432Z,62.55
2023-01-21T06:55:02.817Z,49.80
2023-01-21T06:57:31.756Z,49.25
2023-01-21T07:00:00.136Z,50.47
2023-01-21T07:02:30.085Z,54.10
2023-01-21T07:04:59.254Z,41.55
2023-01-21T07:07:28.129Z,58.13
2023-01-21T07:09:56.510Z,61.13
2023-01-21T07:12:24.963Z,45.42
2023-01-21T07:14:53.349Z,46.25
2023-01-21T07:17:23.153Z,46.10
2023-01-21T07:19:52.901Z,51.72
2023-01-21T07:22:21.228Z,46.28
2023-01-21T07:24:49.660Z,47.42
2023-01-21T07:27:18.030Z,65.45
2023-01-21T07:29:46.860Z,49.90
2023-01-21T07:32:15.570Z,44.78
2023-01-21T07:34:43.902Z,53.58
2023-01-21T07:37:13.628Z,49.65
2023-01-21T07:39:42.217Z,54.25
2023-01-21T07:42:11.353Z,48.13
2023-01-21T07:44:39.788Z,42.60
2023-01-21T07:47:08.318Z,56.85
2023-01-21T07:49:37.577Z,35.67
2023-01-21T07:52:06.266Z,51.85
2023-01-21T07:54:36.099Z,48.80
2023-01-21T07:57:05.059Z,48.90
2023-01-21T07:59:33.599Z,48.40
2023-01-21T08:02:02.863Z,45.90
2023-01-21T08:04:31.435Z,58.25
2023-01-21T08:06:59.860Z,61.83
2023-01-21T08:09:28.507Z,57.95
2023-01-21T08:11:58.320Z,67.60
2023-01-21T08:14:26.797Z,58.22
2023-01-21T08:16:56.006Z,56.63
2023-01-21T08:19:24.613Z,55.05
2023-01-21T08:21:53.479Z,64.45
2023-01-21T08:24:23.051Z,52.88
2023-01-21T08:26:51.471Z,48.28
2023-01-21T08:29:21.336Z,57.83
2023-01-21T08:31:49.944Z,45.70
2023-01-21T08:34:18.593Z,65.75
2023-01-21T08:36:47.446Z,63.72
2023-01-21T08:39:16.700Z,52.45
2023-01-21T08:41:46.205Z,55.90
2023-01-21T08:44:14.787Z,58.85
2023-01-21T08:46:44.610Z,55.13
2023-01-21T08:49:13.114Z,63.47
2023-01-21T08:51:41.854Z,68.85
2023-01-21T08:54:11.020Z,63.78
2023-01-21T08:56:39.478Z,67.80
2023-01-21T08:59:08.047Z,56.35
2023-01-21T09:01:40.970Z,61.95
2023-01-21T09:04:11.661Z,61.78
2023-01-21T09:06:40.609Z,54.47
2023-01-21T09:09:12.444Z,57.60
2023-01-21T09:11:40.889Z,60.65
2023-01-21T09:14:09.341Z,60.53
2023-01-21T09:16:37.824Z,53.97
2023-01-21T09:19:06.910Z,54.72
2023-01-21T09:21:38.955Z,54.05
2023-01-21T09:24:09.328Z,47.20
2023-01-21T09:26:37.887Z,45.28
2023-01-21T09:29:07.966Z,49.90
2023-01-21T09:31:36.592Z,50.90
2023-01-21T09:34:06.541Z,74.30
2023-01-21T09:36:36.971Z,63.80
2023-01-21T09:39:08.247Z,65.45
2023-01-21T09:41:41.202Z,56.35
2023-01-21T09:44:18.780Z,63.83
2023-01-21T09:46:55.088Z,63.78
2023-01-21T09:49:30.506Z,56.00
2023-01-21T09:52:25.787Z,58.97
2023-01-21T09:54:54.963Z,59.15
2023-01-21T09:58:02.729Z,61.03
2023-01-21T10:00:37.329Z,60.30
2023-01-21T10:03:19.682Z,63.05
2023-01-21T10:06:24.569Z,78.05
2023-01-21T10:09:32.471Z,73.25
2023-01-21T10:12:22.729Z,60.40
2023-01-21T10:15:31.232Z,87.68
2023-01-21T10:18:04.934Z,84.43
2023-01-21T10:20:39.783Z,54.97
2023-01-21T10:23:16.478Z,76.47
2023-01-21T10:25:49.635Z,90.00
2023-01-21T10:28:25.416Z,64.18
2023-01-21T10:30:57.839Z,76.27
2023-01-21T10:33:28.944Z,80.37
2023-01-21T10:36:44.168Z,81.37
2023-01-21T10:39:29.012Z,83.57
2023-01-21T10:42:22.904Z,94.17
2023-01-21T10:44:59.719Z,79.88
2023-01-21T10:47:39.700Z,121.97
2023-01-21T10:50:26.978Z,127.10
2023-01-21T10:53:02.879Z,101.43
2023-01-21T10:55:47.422Z,93.17
2023-01-21T10:58:29.106Z,83.10
2023-01-21T11:01:00.688Z,99.23
2023-01-21T11:03:41.245Z,100.17
2023-01-21T11:06:13.224Z,104.00
2023-01-21T11:08:45.075Z,112.63
2023-01-21T11:11:16.739Z,113.43
2023-01-21T11:13:47.029Z,104.33
2023-01-21T11:16:31.497Z,87.53
2023-01-21T11:19:00.482Z,84.33
2023-01-21T11:21:29.141Z,96.40
2023-01-21T11:24:05.031Z,107.37
2023-01-21T11:26:36.425Z,102.67
2023-01-21T11:29:14.986Z,85.73
2023-01-21T11:31:50.638Z,98.93
2023-01-21T11:34:21.259Z,90.20
2023-01-21T11:37:02.072Z,80.30
2023-01-21T11:39:34.630Z,79.83
2023-01-21T11:42:09.449Z,86.80
2023-01-21T11:44:54.160Z,88.97
2023-01-21T11:47:39.203Z,79.83
2023-01-21T11:50:17.821Z,68.53
2023-01-21T11:52:48.049Z,99.00
2023-01-21T11:55:24.714Z,91.33
2023-01-21T11:57:57.136Z,85.67
2023-01-21T12:00:28.959Z,87.13
2023-01-21T12:03:02.320Z,99.87
2023-01-21T12:05:35.191Z,72.83
2023-01-21T12:08:06.828Z,87.97
2023-01-21T12:10:39.458Z,141.30
2023-01-21T12:13:23.741Z,93.27
2023-01-21T12:16:24.823Z,173.87
2023-01-21T12:19:31.475Z,104.90
2023-01-21T12:22:23.603Z,80.27
2023-01-21T12:25:15.125Z,84.03
2023-01-21T12:28:02.107Z,87.63
2023-01-21T12:30:41.641Z,76.43
2023-01-21T12:33:17.905Z,79.30
2023-01-21T12:35:50.372Z,87.27
2023-01-21T12:38:24.173Z,74.77
2023-01-21T12:41:00.956Z,79.97
2023-01-21T12:43:36.361Z,54.10
2023-01-21T12:46:13.978Z,97.53
2023-01-21T12:48:49.156Z,72.83
2023-01-21T12:51:24.541Z,76.37
2023-01-21T12:54:00.105Z,62.67
2023-01-21T12:56:38.682Z,67.03
2023-01-21T12:59:16.332Z,63.47
2023-01-21T13:01:54.520Z,62.13
2023-01-21T13:04:52.571Z,79.57
2023-01-21T13:07:35.731Z,63.73
2023-01-21T13:10:16.004Z,64.87
2023-01-21T13:12:50.416Z,62.57
2023-01-21T13:15:23.211Z,64.10
2023-01-21T13:17:56.639Z,54.53
2023-01-21T13:20:27.298Z,66.03
2023-01-21T13:23:09.626Z,84.10
2023-01-21T13:25:45.866Z,55.20
2023-01-21T13:28:21.699Z,67.97
2023-01-21T13:30:59.592Z,57.73
2023-01-21T13:33:41.791Z,64.03
2023-01-21T13:36:27.499Z,64.37
2023-01-21T13:39:04.672Z,63.00
2023-01-21T13:42:00.048Z,73.20
2023-01-21T13:45:07.615Z,75.27
2023-01-21T13:48:08.723Z,66.70
2023-01-21T13:50:55.454Z,70.70
2023-01-21T13:53:46.008Z,56.53
2023-01-21T13:56:32.952Z,64.30
2023-01-21T13:59:09.150Z,56.37
2023-01-21T14:01:46.283Z,51.60
2023-01-21T14:04:22.915Z,54.13
2023-01-21T14:06:57.574Z,64.63
2023-01-21T14:09:33.214Z,67.23
2023-01-21T14:12:08.070Z,59.13
2023-01-21T14:15:19.677Z,59.60
2023-01-21T14:18:13.424Z,58.50
2023-01-21T14:21:17.023Z,56.83
2023-01-21T14:24:10.564Z,60.90
2023-01-21T14:26:58.744Z,57.37
2023-01-21T14:29:36.745Z,55.90
2023-01-21T14:32:14.606Z,53.27
2023-01-21T14:34:55.541Z,54.20
2023-01-21T14:37:32.279Z,68.47
2023-01-21T14:40:14.871Z,49.93
2023-01-21T14:42:49.126Z,62.00
2023-01-21T14:45:22.369Z,54.73
2023-01-21T14:47:53.656Z,51.17
2023-01-21T14:50:51.961Z,50.80
2023-01-21T14:53:25.146Z,51.80
2023-01-21T14:56:17.044Z,65.00
2023-01-21T14:58:53.507Z,56.60
2023-01-21T15:01:36.196Z,57.47
2023-01-21T15:04:09.505Z,62.17
2023-01-21T15:06:40.910Z,60.10
2023-01-21T15:09:20.783Z,60.27
2023-01-21T15:11:56.751Z,49.33
2023-01-21T15:14:29.755Z,55.47
2023-01-21T15:16:58.621Z,62.63
2023-01-21T15:19:33.424Z,59.77
2023-01-21T15:22:40.973Z,70.83
2023-01-21T15:25:34.261Z,61.80
2023-01-21T15:28:40.678Z,67.55
2023-01-21T15:31:14.772Z,54.05
2023-01-21T15:33:53.441Z,52.67
2023-01-21T15:36:28.264Z,61.95
2023-01-21T15:39:02.639Z,47.42
2023-01-21T15:41:44.492Z,56.35
2023-01-21T15:44:31.464Z,54.10
2023-01-21T15:47:14.285Z,50.22
2023-01-21T15:49:57.055Z,56.63
2023-01-21T15:52:54.991Z,44.47
2023-01-21T15:55:36.370Z,52.00
2023-01-21T15:58:21.691Z,49.20
2023-01-21T16:01:01.703Z,50.80
2023-01-21T16:03:39.267Z,39.17
2023-01-21T16:06:23.769Z,41.83
2023-01-21T16:09:04.870Z,58.20
2023-01-21T16:12:04.445Z,60.13
2023-01-21T16:14:52.596Z,52.08
2023-01-21T16:17:29.125Z,55.08
2023-01-21T16:20:01.324Z,47.40
2023-01-21T16:22:34.723Z,55.85
2023-01-21T16:25:08.928Z,60.70
2023-01-21T16:27:38.151Z,84.82
2023-01-21T16:30:12.926Z,70.47
2023-01-21T16:32:42.245Z,61.87
2023-01-21T16:35:12.389Z,73.07
2023-01-21T16:37:43.668Z,80.80
2023-01-21T16:40:29.402Z,68.50
2023-01-21T16:43:24.909Z,64.72
2023-01-21T16:45:56.457Z,65.77
2023-01-21T16:48:29.086Z,73.28
2023-01-21T16:50:59.709Z,60.03
2023-01-21T16:53:28.868Z,54.20
2023-01-21T16:55:59.381Z,74.43
2023-01-21T16:58:30.268Z,56.03
2023-01-21T17:01:12.041Z,58.30
2023-01-21T17:03:40.530Z,48.25
2023-01-21T17:06:17.111Z,58.80
2023-01-21T17:08:51.885Z,58.00
2023-01-21T17:11:22.050Z,49.13
2023-01-21T17:13:51.084Z,61.30
2023-01-21T17:16:27.146Z,56.08
2023-01-21T17:18:59.945Z,56.00
2023-01-21T17:21:37.676Z,63.77
2023-01-21T17:24:17.119Z,55.90
2023-01-21T17:26:49.647Z,55.42
2023-01-21T17:29:21.952Z,59.25
2023-01-21T17:31:57.243Z,63.75
2023-01-21T17:34:28.371Z,65.00
2023-01-21T17:36:58.898Z,53.58
2023-01-21T17:40:01.633Z,58.27
2023-01-21T17:42:39.905Z,58.13
2023-01-21T17:45:20.008Z,54.78
2023-01-21T17:48:12.569Z,55.30
2023-01-21T17:50:47.613Z,46.40
2023-01-21T17:53:26.976Z,54.17
2023-01-21T17:56:02.533Z,55.53
2023-01-21T17:58:51.443Z,48.42
2023-01-21T18:01:22.305Z,52.47
2023-01-21T18:03:51.709Z,40.15
2023-01-21T18:06:25.225Z,64.38
2023-01-21T18:08:56.366Z,51.25
2023-01-21T18:11:25.360Z,44.70
2023-01-21T18:13:53.803Z,49.33
2023-01-21T18:16:22.560Z,50.40
2023-01-21T18:18:54.034Z,52.97
2023-01-21T18:21:23.183Z,46.92
2023-01-21T18:23:54.750Z,44.17
2023-01-21T18:26:31.584Z,53.08
2023-01-21T18:29:02.812Z,51.50
2023-01-21T18:31:31.359Z,44.50
2023-01-21T18:34:00.120Z,42.53
2023-01-21T18:36:30.567Z,41.88
2023-01-21T18:39:00.994Z,44.28
2023-01-21T18:41:29.461Z,56.65
2023-01-21T18:43:57.916Z,52.40
2023-01-21T18:46:26.314Z,49.97
2023-01-21T18:48:55.330Z,47.85
2023-01-21T18:51:23.884Z,36.70
2023-01-21T18:53:52.444Z,55.15
2023-01-21T18:56:22.868Z,45.08
2023-01-21T18:58:51.321Z,45.20
2023-01-21T19:01:23.789Z,42.53
2023-01-21T19:03:57.408Z,40.97
2023-01-21T19:06:29.103Z,42.15
2023-01-21T19:08:59.804Z,46.22
2023-01-21T19:11:29.787Z,48.15
2023-01-21T19:13:58.233Z,41.20
2023-01-21T19:16:26.804Z,56.95
2023-01-21T19:18:55.518Z,60.10
2023-01-21T19:21:23.971Z,44.67
2023-01-21T19:23:52.704Z,49.67
2023-01-21T19:26:21.345Z,60.25
2023-01-21T19:28:51.752Z,45.60
2023-01-21T19:31:21.605Z,57.67
2023-01-21T19:33:50.347Z,51.57
2023-01-21T19:36:20.821Z,51.70
2023-01-21T19:38:55.369Z,48.75
2023-01-21T19:41:24.275Z,50.28
2023-01-21T19:43:54.739Z,56.83
2023-01-21T19:46:28.923Z,51.38
2023-01-21T19:48:58.810Z,57.65
2023-01-21T19:51:30.691Z,37.65
2023-01-21T19:54:00.327Z,46.78
2023-01-21T19:56:30.893Z,54.15
2023-01-21T19:59:02.468Z,68.47
2023-01-21T20:01:31.418Z,49.77
2023-01-21T20:04:01.123Z,52.45
2023-01-21T20:06:42.437Z,42.10
2023-01-21T20:09:17.741Z,58.40
2023-01-21T20:11:46.450Z,54.53
2023-01-21T20:14:17.125Z,51.10
2023-01-21T20:16:50.046Z,55.38
2023-01-21T20:19:20.304Z,60.45
2023-01-21T20:22:01.278Z,43.03
2023-01-21T20:24:33.898Z,47.03
2023-01-21T20:27:08.586Z,56.38
2023-01-21T20:29:49.523Z,51.75
2023-01-21T20:32:23.909Z,52.15
2023-01-21T20:34:52.320Z,39.53
2023-01-21T20:37:21.547Z,50.20
2023-01-21T20:39:50.034Z,55.63
2023-01-21T20:42:19.105Z,59.67
2023-01-21T20:44:48.996Z,54.75
2023-01-21T20:47:27.511Z,59.97
2023-01-21T20:50:18.178Z,43.35
2023-01-21T20:52:46.776Z,41.70
2023-01-21T20:55:18.430Z,49.50
2023-01-21T20:57:49.820Z,46.65
2023-01-21T21:00:23.113Z,55.67
2023-01-21T21:02:51.627Z,46.25
2023-01-21T21:05:20.545Z,50.22
2023-01-21T21:07:50.874Z,58.72
2023-01-21T21:10:23.478Z,53.33
2023-01-21T21:12:55.619Z,38.83
2023-01-21T21:15:28.039Z,59.13
2023-01-21T21:17:58.378Z,51.63
2023-01-21T21:20:30.557Z,46.95
2023-01-21T21:22:59.149Z,41.72
2023-01-21T21:25:30.896Z,41.80
2023-01-21T21:28:00.036Z,59.45
2023-01-21T21:30:33.886Z,52.47
2023-01-21T21:33:03.069Z,43.53
2023-01-21T21:35:33.980Z,46.65
2023-01-21T21:38:07.869Z,48.20
2023-01-21T21:40:37.244Z,32.13
2023-01-21T21:43:23.523Z,35.10
2023-01-21T21:46:10.900Z,41.88
2023-01-21T21:48:39.608Z,30.48
2023-01-21T21:51:12.434Z,35.33
2023-01-21T21:53:42.589Z,37.28
2023-01-21T21:56:15.104Z,38.53
2023-01-21T21:58:44.000Z,34.65
2023-01-21T22:01:17.500Z,39.78
2023-01-21T22:03:47.872Z,36.70
2023-01-21T22:06:18.497Z,53.53
2023-01-21T22:08:49.072Z,39.00
2023-01-21T22:11:21.222Z,51.75
2023-01-21T22:13:52.032Z,40.92
2023-01-21T22:16:25.648Z,37.70
2023-01-21T22:18:57.859Z,45.22
2023-01-21T22:21:29.906Z,51.05
2023-01-21T22:23:58.521Z,37.65
2023-01-21T22:26:28.969Z,50.28
2023-01-21T22:28:57.459Z,54.15
2023-01-21T22:31:29.695Z,44.92
2023-01-21T22:34:02.801Z,39.85
2023-01-21T22:36:32.492Z,53.45
2023-01-21T22:39:01.671Z,37.38
2023-01-21T22:41:30.943Z,48.83
2023-01-21T22:43:59.325Z,67.95
2023-01-21T22:46:31.399Z,51.05
2023-01-21T22:48:59.977Z,67.15
2023-01-21T22:51:29.666Z,41.13
2023-01-21T22:54:00.447Z,45.67
2023-01-21T22:56:49.509Z,47.33
2023-01-21T22:59:17.239Z,39.05
2023-01-21T23:01:48.773Z,40.38
2023-01-21T23:04:17.789Z,52.25
2023-01-21T23:06:48.704Z,54.22
2023-01-21T23:09:18.797Z,45.22
2023-01-21T23:11:52.594Z,39.78
2023-01-21T23:14:21.689Z,40.05
2023-01-21T23:16:53.783Z,36.90
2023-01-21T23:19:22.149Z,43.58
2023-01-21T23:21:50.499Z,36.75
2023-01-21T23:24:19.449Z,46.25
2023-01-21T23:26:47.850Z,55.83
2023-01-21T23:29:16.206Z,52.97
2023-01-21T23:31:45.127Z,47.28
2023-01-21T23:34:15.541Z,50.67
2023-01-21T23:36:44.005Z,48.75
2023-01-21T23:39:14.989Z,49.05
2023-01-21T23:41:43.574Z,44.35
2023-01-21T23:44:12.420Z,43.22
2023-01-21T23:46:43.156Z,41.13
2023-01-21T23:49:11.538Z,38.25
2023-01-21T23:51:41.273Z,50.13
2023-01-21T23:54:11.815Z,50.80
2023-01-21T23:56:40.656Z,45.90
2023-01-21T23:59:10.321Z,49.17
